createdAt,value
2023-03-26T00:01:19.299Z,100549.19
2023-03-26T00:03:47.178Z,100552.22
2023-03-26T00:06:16.686Z,100558.34
2023-03-26T00:08:45.713Z,100560.41
2023-03-26T00:11:16.000Z,100559.72
2023-03-26T00:13:46.802Z,100556.09
2023-03-26T00:16:16.608Z,100559.72
2023-03-26T00:18:44.358Z,100559.72
2023-03-26T00:21:15.082Z,100555.41
2023-03-26T00:23:42.057Z,100560.81
2023-03-26T00:26:10.618Z,100555.19
2023-03-26T00:28:42.257Z,100542.03
2023-03-26T00:31:12.988Z,100565.16
2023-03-26T00:33:41.405Z,100559.31
2023-03-26T00:36:11.886Z,100573.69
2023-03-26T00:38:39.606Z,100573.69
2023-03-26T00:41:17.930Z,100502.56
2023-03-26T00:43:46.638Z,100561.97
2023-03-26T00:46:13.607Z,100559.69
2023-03-26T00:48:45.596Z,100540.03
2023-03-26T00:51:17.615Z,100549.28
2023-03-26T00:53:46.453Z,100540.31
2023-03-26T00:56:13.974Z,100578.25
2023-03-26T00:58:41.012Z,100577.69
2023-03-26T01:01:14.369Z,100509.19
2023-03-26T01:03:53.115Z,100564.22
2023-03-26T01:06:36.659Z,100577.84
2023-03-26T01:09:20.806Z,100559.19
2023-03-26T01:11:49.858Z,100581.13
2023-03-26T01:14:23.733Z,100570.69
2023-03-26T01:16:53.997Z,100582.25
2023-03-26T01:19:45.460Z,100571.81
2023-03-26T01:22:18.637Z,100548.44
2023-03-26T01:24:53.245Z,100561.84
2023-03-26T01:27:33.635Z,100570.22
2023-03-26T01:30:03.897Z,100577.19
2023-03-26T01:32:59.177Z,100571.91
2023-03-26T01:35:43.287Z,100551.00
2023-03-26T01:38:28.775Z,100568.03
2023-03-26T01:41:06.560Z,100541.78
2023-03-26T01:44:00.036Z,100568.88
2023-03-26T01:46:28.778Z,100559.31
2023-03-26T01:48:55.899Z,100522.16
2023-03-26T01:51:33.015Z,100561.13
2023-03-26T01:54:01.969Z,100550.78
2023-03-26T01:57:00.013Z,100555.00
2023-03-26T01:59:29.520Z,100545.28
2023-03-26T02:02:04.984Z,100520.09
2023-03-26T02:04:38.562Z,100543.59
2023-03-26T02:07:44.782Z,100545.50
2023-03-26T02:10:18.848Z,100549.34
2023-03-26T02:12:45.893Z,100517.50
2023-03-26T02:15:13.128Z,100543.59
2023-03-26T02:17:40.395Z,100515.09
2023-03-26T02:20:14.196Z,100537.88
2023-03-26T02:22:46.015Z,100534.50
2023-03-26T02:25:21.221Z,100505.81
2023-03-26T02:27:49.627Z,100539.00
2023-03-26T02:30:20.613Z,100535.03
2023-03-26T02:32:47.352Z,100510.66
2023-03-26T02:35:14.152Z,100514.47
2023-03-26T02:37:42.184Z,100533.63
2023-03-26T02:40:11.790Z,100510.63
2023-03-26T02:42:39.247Z,100520.66
2023-03-26T02:45:08.030Z,100524.25
2023-03-26T02:47:35.168Z,100509.47
2023-03-26T02:50:03.745Z,100518.47
2023-03-26T02:52:30.499Z,100500.72
2023-03-26T02:54:57.839Z,100514.47
2023-03-26T02:57:25.033Z,100515.31
2023-03-26T02:59:52.898Z,100489.81
2023-03-26T03:02:20.453Z,100512.31
2023-03-26T03:04:47.251Z,100515.38
2023-03-26T03:07:15.064Z,100469.06
2023-03-26T03:09:41.781Z,100499.94
2023-03-26T03:12:08.429Z,100502.31
2023-03-26T03:14:35.396Z,100510.94
2023-03-26T03:17:02.062Z,100512.38
2023-03-26T03:19:28.724Z,100497.31
2023-03-26T03:21:55.393Z,100494.13
2023-03-26T03:24:22.035Z,100497.34
2023-03-26T03:26:50.309Z,100480.50
2023-03-26T03:29:17.389Z,100459.41
2023-03-26T03:31:44.000Z,100485.13
2023-03-26T03:34:10.677Z,100469.53
2023-03-26T03:36:38.427Z,100459.63
2023-03-26T03:39:05.338Z,100398.38
2023-03-26T03:41:32.293Z,100473.03
2023-03-26T03:43:59.914Z,100468.69
2023-03-26T03:46:26.926Z,100468.47
2023-03-26T03:48:53.508Z,100477.06
2023-03-26T03:51:20.309Z,100481.88
2023-03-26T03:53:47.634Z,100476.59
2023-03-26T03:56:14.840Z,100472.28
2023-03-26T03:58:42.257Z,100448.34
2023-03-26T04:01:09.523Z,100465.34
2023-03-26T04:03:38.951Z,100462.84
2023-03-26T04:06:07.382Z,100475.66
2023-03-26T04:08:34.871Z,100477.06
2023-03-26T04:11:01.639Z,100453.38
2023-03-26T04:13:28.252Z,100469.53
2023-03-26T04:15:56.533Z,100482.34
2023-03-26T04:18:23.381Z,100481.50
2023-03-26T04:20:50.823Z,100473.25
2023-03-26T04:23:18.822Z,100469.22
2023-03-26T04:25:49.145Z,100477.84
2023-03-26T04:28:42.434Z,100483.50
2023-03-26T04:31:15.732Z,100441.50
2023-03-26T04:33:49.066Z,100461.13
2023-03-26T04:36:16.968Z,100472.69
2023-03-26T04:38:52.080Z,100467.31
2023-03-26T04:41:22.414Z,100443.28
2023-03-26T04:43:50.762Z,100445.81
2023-03-26T04:46:23.823Z,100456.50
2023-03-26T04:48:51.416Z,100462.03
2023-03-26T04:51:21.966Z,100466.13
2023-03-26T04:53:51.343Z,100458.25
2023-03-26T04:56:32.233Z,100459.81
2023-03-26T04:59:01.362Z,100431.47
2023-03-26T05:01:28.604Z,100472.44
2023-03-26T05:03:55.679Z,100448.97
2023-03-26T05:06:22.454Z,100449.09
2023-03-26T05:08:49.018Z,100454.47
2023-03-26T05:11:15.829Z,100431.22
2023-03-26T05:13:43.005Z,100459.00
2023-03-26T05:16:11.335Z,100455.66
2023-03-26T05:18:38.280Z,100454.47
2023-03-26T05:21:05.372Z,100469.56
2023-03-26T05:23:32.073Z,100424.88
2023-03-26T05:25:58.766Z,100456.88
2023-03-26T05:28:27.033Z,100473.88
2023-03-26T05:30:54.625Z,100461.41
2023-03-26T05:33:22.173Z,100460.31
2023-03-26T05:35:59.229Z,100470.41
2023-03-26T05:38:25.865Z,100441.41
2023-03-26T05:40:57.904Z,100390.06
2023-03-26T05:43:25.257Z,100449.44
2023-03-26T05:45:52.446Z,100457.56
2023-03-26T05:48:19.432Z,100438.63
2023-03-26T05:50:50.980Z,100460.66
2023-03-26T05:53:18.644Z,100460.41
2023-03-26T05:55:46.749Z,100421.84
2023-03-26T05:58:13.974Z,100454.16
2023-03-26T06:00:40.644Z,100461.84
2023-03-26T06:03:12.752Z,100448.66
2023-03-26T06:05:40.391Z,100454.72
2023-03-26T06:08:07.821Z,100445.97
2023-03-26T06:10:38.140Z,100441.44
2023-03-26T06:13:05.498Z,100447.88
2023-03-26T06:15:32.144Z,100438.41
2023-03-26T06:17:58.765Z,100450.97
2023-03-26T06:20:25.631Z,100429.91
2023-03-26T06:22:52.199Z,100446.88
2023-03-26T06:25:20.114Z,100456.44
2023-03-26T06:27:46.874Z,100423.28
2023-03-26T06:30:13.709Z,100442.84
2023-03-26T06:32:40.415Z,100408.25
2023-03-26T06:35:07.402Z,100444.28
2023-03-26T06:37:34.297Z,100450.72
2023-03-26T06:40:00.989Z,100456.06
2023-03-26T06:43:06.754Z,100452.34
2023-03-26T06:45:14.292Z,100441.25
2023-03-26T06:47:41.367Z,100451.56
2023-03-26T06:50:09.185Z,100431.47
2023-03-26T06:52:35.963Z,100436.22
2023-03-26T06:55:02.759Z,100464.94
2023-03-26T06:57:29.374Z,100429.97
2023-03-26T06:59:56.008Z,100441.47
2023-03-26T07:02:22.753Z,100455.81
2023-03-26T07:04:49.798Z,100414.22
2023-03-26T07:07:16.536Z,100451.06
2023-03-26T07:09:43.142Z,100460.19
2023-03-26T07:12:09.894Z,100439.38
2023-03-26T07:14:38.755Z,100456.84
2023-03-26T07:17:05.793Z,100450.13
2023-03-26T07:19:33.024Z,100452.06
2023-03-26T07:22:00.222Z,100452.91
2023-03-26T07:24:27.326Z,100431.47
2023-03-26T07:27:27.374Z,100444.63
2023-03-26T07:30:02.939Z,100396.28
2023-03-26T07:32:52.266Z,100440.41
2023-03-26T07:35:37.143Z,100445.56
2023-03-26T07:38:32.959Z,100440.53
2023-03-26T07:41:36.148Z,100434.72
2023-03-26T07:44:38.177Z,100435.13
2023-03-26T07:47:25.833Z,100431.53
2023-03-26T07:49:54.798Z,100435.56
2023-03-26T07:52:22.074Z,100435.56
2023-03-26T07:54:49.233Z,100356.38
2023-03-26T07:57:58.874Z,100436.22
2023-03-26T08:00:48.948Z,100439.78
2023-03-26T08:03:39.370Z,100433.03
2023-03-26T08:06:14.961Z,100435.84
2023-03-26T08:09:00.708Z,100429.50
2023-03-26T08:11:40.715Z,100437.13
2023-03-26T08:14:16.766Z,100440.91
2023-03-26T08:16:54.809Z,100439.13
2023-03-26T08:19:41.086Z,100442.19
2023-03-26T08:22:26.439Z,100433.53
2023-03-26T08:25:02.381Z,100433.53
2023-03-26T08:27:40.203Z,100447.19
2023-03-26T08:30:17.549Z,100441.06
2023-03-26T08:32:54.102Z,100439.97
2023-03-26T08:35:20.953Z,100414.34
2023-03-26T08:37:47.615Z,100436.78
2023-03-26T08:40:23.726Z,100448.50
2023-03-26T08:42:56.508Z,100450.09
2023-03-26T08:45:38.813Z,100450.28
2023-03-26T08:48:36.718Z,100417.88
2023-03-26T08:51:15.292Z,100447.31
2023-03-26T08:53:54.636Z,100432.22
2023-03-26T08:56:39.895Z,100442.31
2023-03-26T08:59:34.339Z,100449.50
2023-03-26T09:02:17.394Z,100447.00
2023-03-26T09:05:11.503Z,100441.84
2023-03-26T09:08:05.519Z,100455.09
2023-03-26T09:10:52.084Z,100449.16
2023-03-26T09:13:55.976Z,100444.06
2023-03-26T09:16:37.979Z,100449.41
2023-03-26T09:19:26.170Z,100440.41
2023-03-26T09:22:06.358Z,100447.78
2023-03-26T09:24:51.603Z,100441.41
2023-03-26T09:27:48.763Z,100444.19
2023-03-26T09:30:39.816Z,100449.19
2023-03-26T09:33:37.307Z,100449.06
2023-03-26T09:36:21.892Z,100445.03
2023-03-26T09:39:03.788Z,100451.81
2023-03-26T09:41:44.061Z,100445.84
2023-03-26T09:44:40.902Z,100445.28
2023-03-26T09:47:35.795Z,100453.09
2023-03-26T09:50:20.463Z,100426.06
2023-03-26T09:53:00.777Z,100433.88
2023-03-26T09:55:27.642Z,100450.84
2023-03-26T09:58:09.308Z,100454.75
2023-03-26T10:01:27.569Z,100458.78
2023-03-26T10:04:28.959Z,100463.44
2023-03-26T10:07:04.621Z,100468.88
2023-03-26T10:09:52.738Z,100467.06
2023-03-26T10:12:23.985Z,100474.19
2023-03-26T10:15:03.254Z,100467.06
2023-03-26T10:17:48.427Z,100471.94
2023-03-26T10:20:35.437Z,100455.34
2023-03-26T10:23:10.660Z,100444.34
2023-03-26T10:25:49.146Z,100472.66
2023-03-26T10:28:30.925Z,100468.97
2023-03-26T10:31:19.681Z,100456.09
2023-03-26T10:34:01.531Z,100469.75
2023-03-26T10:37:04.154Z,100408.63
2023-03-26T10:39:45.924Z,100474.44
2023-03-26T10:42:34.087Z,100467.72
2023-03-26T10:45:07.420Z,100477.31
2023-03-26T10:47:54.260Z,100484.06
2023-03-26T10:50:27.838Z,100473.72
2023-03-26T10:53:20.324Z,100434.97
2023-03-26T10:55:54.802Z,100477.47
2023-03-26T10:58:27.281Z,100487.81
2023-03-26T11:01:00.927Z,100452.63
2023-03-26T11:03:56.395Z,100481.09
2023-03-26T11:06:30.260Z,100495.91
2023-03-26T11:09:03.907Z,100471.44
2023-03-26T11:11:56.391Z,100475.09
2023-03-26T11:14:42.254Z,100495.75
2023-03-26T11:17:39.435Z,100500.09
2023-03-26T11:20:16.800Z,100499.91
2023-03-26T11:23:12.160Z,100467.56
2023-03-26T11:25:50.617Z,100506.72
2023-03-26T11:28:32.142Z,100508.16
2023-03-26T11:31:13.517Z,100504.88
2023-03-26T11:33:48.993Z,100477.44
2023-03-26T11:36:21.728Z,100510.84
2023-03-26T11:38:50.899Z,100512.81
2023-03-26T11:41:26.779Z,100510.84
2023-03-26T11:44:07.230Z,100500.53
2023-03-26T11:46:38.862Z,100500.94
2023-03-26T11:49:11.233Z,100491.97
2023-03-26T11:51:39.645Z,100488.38
2023-03-26T11:54:08.061Z,100497.16
2023-03-26T11:57:04.410Z,100498.75
2023-03-26T11:59:59.054Z,100493.72
2023-03-26T12:02:39.369Z,100487.00
2023-03-26T12:05:18.378Z,100516.56
2023-03-26T12:07:57.351Z,100508.50
2023-03-26T12:10:43.084Z,100505.19
2023-03-26T12:13:43.089Z,100516.56
2023-03-26T12:16:13.969Z,100521.78
2023-03-26T12:18:44.069Z,100516.22
2023-03-26T12:21:15.495Z,100520.13
2023-03-26T12:24:01.744Z,100527.38
2023-03-26T12:26:42.891Z,100526.16
2023-03-26T12:29:15.786Z,100525.72
2023-03-26T12:31:51.304Z,100533.16
2023-03-26T12:34:21.712Z,100536.88
2023-03-26T12:36:53.545Z,100522.25
2023-03-26T12:40:07.500Z,100536.50
2023-03-26T12:44:46.703Z,100549.19
2023-03-26T12:45:13.720Z,100523.94
2023-03-26T12:48:01.302Z,100524.25
2023-03-26T12:50:36.976Z,100548.88
2023-03-26T12:53:41.896Z,100548.88
2023-03-26T12:56:20.027Z,100551.78
2023-03-26T12:59:34.177Z,100549.47
2023-03-26T13:02:34.686Z,100558.91
2023-03-26T13:05:19.520Z,100530.69
2023-03-26T13:08:21.544Z,100561.84
2023-03-26T13:11:08.315Z,100554.88
2023-03-26T13:13:53.422Z,100558.66
2023-03-26T13:16:25.862Z,100560.06
2023-03-26T13:19:07.132Z,100562.72
2023-03-26T13:21:53.714Z,100564.25
2023-03-26T13:24:45.435Z,100562.22
2023-03-26T13:27:30.984Z,100562.22
2023-03-26T13:30:18.863Z,100510.19
2023-03-26T13:33:01.171Z,100551.41
2023-03-26T13:36:00.677Z,100549.56
2023-03-26T13:38:39.916Z,100574.63
2023-03-26T13:41:17.974Z,100569.75
2023-03-26T13:44:08.015Z,100575.09
2023-03-26T13:46:42.977Z,100564.00
2023-03-26T13:49:15.444Z,100528.22
2023-03-26T13:51:48.387Z,100582.38
2023-03-26T13:54:30.592Z,100570.97
2023-03-26T13:57:20.314Z,100517.66
2023-03-26T13:59:54.384Z,100587.44
2023-03-26T14:02:40.719Z,100546.81
2023-03-26T14:05:19.622Z,100572.75
2023-03-26T14:07:57.395Z,100586.72
2023-03-26T14:10:27.365Z,100584.59
2023-03-26T14:13:15.786Z,100569.28
2023-03-26T14:15:50.097Z,100598.41
2023-03-26T14:18:38.681Z,100598.09
2023-03-26T14:21:17.538Z,100578.44
2023-03-26T14:23:59.131Z,100591.50
2023-03-26T14:26:37.639Z,100598.81
2023-03-26T14:29:30.587Z,100604.66
2023-03-26T14:32:14.714Z,100569.50
2023-03-26T14:35:16.532Z,100606.88
2023-03-26T14:38:15.021Z,100606.75
2023-03-26T14:41:06.264Z,100617.56
2023-03-26T14:43:59.609Z,100614.09
2023-03-26T14:46:32.420Z,100623.69
2023-03-26T14:49:21.062Z,100625.88
2023-03-26T14:52:02.761Z,100632.63
2023-03-26T14:54:34.393Z,100623.03
2023-03-26T14:57:36.286Z,100610.66
2023-03-26T15:00:15.812Z,100643.13
2023-03-26T15:03:00.290Z,100620.88
2023-03-26T15:05:48.953Z,100641.00
2023-03-26T15:08:39.951Z,100647.72
2023-03-26T15:11:27.043Z,100640.50
2023-03-26T15:14:03.830Z,100646.50
2023-03-26T15:16:33.655Z,100642.63
2023-03-26T15:19:28.229Z,100654.31
2023-03-26T15:22:00.484Z,100646.03
2023-03-26T15:24:27.438Z,100649.19
2023-03-26T15:27:27.999Z,100660.63
2023-03-26T15:30:17.833Z,100651.63
2023-03-26T15:32:57.291Z,100660.25
2023-03-26T15:35:54.194Z,100646.13
2023-03-26T15:38:46.546Z,100674.94
2023-03-26T15:41:27.924Z,100672.78
2023-03-26T15:44:23.876Z,100683.09
2023-03-26T15:47:02.972Z,100675.19
2023-03-26T15:49:48.423Z,100700.13
2023-03-26T15:52:31.376Z,100698.25
2023-03-26T15:55:27.886Z,100657.47
2023-03-26T15:58:21.427Z,100659.13
2023-03-26T16:00:57.322Z,100705.41
2023-03-26T16:03:48.203Z,100706.59
2023-03-26T16:06:15.944Z,100709.03
2023-03-26T16:09:30.844Z,100723.06
2023-03-26T16:11:59.760Z,100700.13
2023-03-26T16:14:35.597Z,100729.91
2023-03-26T16:17:06.611Z,100713.34
2023-03-26T16:19:49.589Z,100721.00
2023-03-26T16:22:56.311Z,100716.41
2023-03-26T16:25:29.637Z,100720.69
2023-03-26T16:28:09.144Z,100742.03
2023-03-26T16:30:36.195Z,100747.25
2023-03-26T16:33:18.603Z,100707.53
2023-03-26T16:36:06.445Z,100731.72
2023-03-26T16:39:05.571Z,100732.56
2023-03-26T16:41:32.225Z,100770.69
2023-03-26T16:44:20.447Z,100769.22
2023-03-26T16:47:17.995Z,100740.88
2023-03-26T16:50:18.861Z,100741.09
2023-03-26T16:52:54.393Z,100777.56
2023-03-26T16:55:41.494Z,100784.03
2023-03-26T16:58:11.222Z,100796.25
2023-03-26T17:00:48.170Z,100796.69
2023-03-26T17:03:27.072Z,100795.03
2023-03-26T17:05:57.125Z,100816.31
2023-03-26T17:08:53.381Z,100797.78
2023-03-26T17:11:45.439Z,100832.31
2023-03-26T17:14:32.964Z,100829.63
2023-03-26T17:17:02.657Z,100831.81
2023-03-26T17:19:46.681Z,100838.38
2023-03-26T17:22:22.233Z,100845.19
2023-03-26T17:24:55.930Z,100832.91
2023-03-26T17:27:46.380Z,100853.88
2023-03-26T17:30:41.092Z,100851.13
2023-03-26T17:33:26.873Z,100861.13
2023-03-26T17:36:11.887Z,100860.19
2023-03-26T17:38:45.206Z,100866.72
2023-03-26T17:41:15.871Z,100844.44
2023-03-26T17:43:52.815Z,100875.16
2023-03-26T17:46:40.798Z,100897.28
2023-03-26T17:49:16.438Z,100879.69
2023-03-26T17:52:04.747Z,100885.91
2023-03-26T17:54:36.155Z,100893.09
2023-03-26T17:57:13.009Z,100888.66
2023-03-26T17:59:40.976Z,100890.22
2023-03-26T18:02:15.493Z,100904.25
2023-03-26T18:04:45.698Z,100896.63
2023-03-26T18:07:41.918Z,100909.94
2023-03-26T18:10:20.647Z,100920.22
2023-03-26T18:13:02.504Z,100924.88
2023-03-26T18:15:51.721Z,100922.75
2023-03-26T18:18:33.230Z,100926.84
2023-03-26T18:21:04.591Z,100898.06
2023-03-26T18:23:47.862Z,100911.13
2023-03-26T18:26:23.084Z,100899.63
2023-03-26T18:29:08.532Z,100941.28
2023-03-26T18:31:36.160Z,100919.53
2023-03-26T18:34:11.807Z,100957.06
2023-03-26T18:36:38.827Z,100930.03
2023-03-26T18:39:13.969Z,100962.31
2023-03-26T18:41:42.557Z,100972.09
2023-03-26T18:44:18.252Z,100951.09
2023-03-26T18:46:45.837Z,100948.53
2023-03-26T18:49:14.553Z,100980.78
2023-03-26T18:51:53.978Z,100987.16
2023-03-26T18:54:24.738Z,100981.78
2023-03-26T18:56:52.746Z,100968.63
2023-03-26T18:59:34.240Z,100999.44
2023-03-26T19:02:05.119Z,100991.19
2023-03-26T19:04:37.026Z,100965.22
2023-03-26T19:07:10.414Z,101000.00
2023-03-26T19:09:38.897Z,100977.88
2023-03-26T19:12:07.322Z,101002.09
2023-03-26T19:14:37.317Z,100997.41
2023-03-26T19:17:07.060Z,101000.97
2023-03-26T19:19:37.179Z,100978.13
2023-03-26T19:22:08.760Z,100991.81
2023-03-26T19:24:35.806Z,101006.25
2023-03-26T19:27:03.606Z,101032.13
2023-03-26T19:29:33.885Z,101015.53
2023-03-26T19:32:32.403Z,101018.91
2023-03-26T19:35:00.825Z,101028.38
2023-03-26T19:37:32.565Z,100994.81
2023-03-26T19:40:20.322Z,101030.25
2023-03-26T19:42:48.857Z,101008.50
2023-03-26T19:45:23.217Z,101019.38
2023-03-26T19:48:03.677Z,101040.78
2023-03-26T19:50:43.096Z,101044.56
2023-03-26T19:53:24.141Z,101008.00
2023-03-26T19:56:15.398Z,101045.13
2023-03-26T19:58:42.869Z,101033.88
2023-03-26T20:01:24.868Z,101048.16
2023-03-26T20:03:54.974Z,101052.66
2023-03-26T20:06:28.140Z,101032.75
2023-03-26T20:09:05.476Z,101045.25
2023-03-26T20:11:38.094Z,101069.34
2023-03-26T20:14:18.141Z,101068.50
2023-03-26T20:16:45.986Z,101048.34
2023-03-26T20:19:14.840Z,101056.22
2023-03-26T20:21:42.424Z,101080.03
2023-03-26T20:24:14.567Z,101090.28
2023-03-26T20:26:41.566Z,101075.91
2023-03-26T20:29:08.597Z,101084.44
2023-03-26T20:31:35.246Z,101099.94
2023-03-26T20:34:01.899Z,101084.75
2023-03-26T20:36:33.274Z,101068.81
2023-03-26T20:39:05.969Z,101081.47
2023-03-26T20:41:33.909Z,101062.97
2023-03-26T20:44:01.068Z,101111.56
2023-03-26T20:46:31.165Z,101087.19
2023-03-26T20:48:59.711Z,101118.13
2023-03-26T20:51:28.804Z,101115.72
2023-03-26T20:53:56.287Z,101121.44
2023-03-26T20:56:23.633Z,101096.72
2023-03-26T20:59:03.685Z,101117.56
2023-03-26T21:01:38.029Z,101105.16
2023-03-26T21:04:05.397Z,101089.19
2023-03-26T21:06:32.153Z,101139.44
2023-03-26T21:08:59.271Z,101099.72
2023-03-26T21:11:35.810Z,101141.47
2023-03-26T21:14:15.789Z,101115.63
2023-03-26T21:16:42.800Z,101025.13
2023-03-26T21:19:12.985Z,101130.84
2023-03-26T21:21:46.225Z,101158.63
2023-03-26T21:24:35.050Z,101150.00
2023-03-26T21:27:26.222Z,101151.88
2023-03-26T21:29:55.010Z,101126.69
2023-03-26T21:32:22.694Z,101109.78
2023-03-26T21:34:58.583Z,101148.00
2023-03-26T21:37:27.803Z,101118.75
2023-03-26T21:39:54.753Z,101137.38
2023-03-26T21:42:21.798Z,101161.41
2023-03-26T21:44:48.798Z,101170.38
2023-03-26T21:47:16.126Z,101181.38
2023-03-26T21:49:43.178Z,101152.63
2023-03-26T21:52:14.984Z,101159.09
2023-03-26T21:54:43.349Z,101176.16
2023-03-26T21:57:27.651Z,101119.84
2023-03-26T21:59:57.218Z,101201.06
2023-03-26T22:03:09.079Z,101204.94
2023-03-26T22:06:17.165Z,101213.00
2023-03-26T22:08:44.018Z,101174.34
2023-03-26T22:11:12.390Z,101170.03
2023-03-26T22:13:39.214Z,101184.66
2023-03-26T22:16:07.667Z,101232.56
2023-03-26T22:18:34.688Z,101186.84
2023-03-26T22:21:01.911Z,101238.81
2023-03-26T22:23:36.352Z,101192.28
2023-03-26T22:26:04.778Z,101245.28
2023-03-26T22:28:31.891Z,101193.63
2023-03-26T22:30:59.203Z,101151.66
2023-03-26T22:33:26.840Z,101238.25
2023-03-26T22:35:55.606Z,101163.31
2023-03-26T22:38:22.312Z,101259.31
2023-03-26T22:40:57.022Z,101150.13
2023-03-26T22:43:23.969Z,101236.09
2023-03-26T22:45:51.566Z,101231.69
2023-03-26T22:48:18.621Z,101250.84
2023-03-26T22:50:45.402Z,101240.75
2023-03-26T22:53:12.078Z,101240.06
2023-03-26T22:55:38.891Z,101251.31
2023-03-26T22:58:05.491Z,101245.56
2023-03-26T23:00:32.382Z,101269.28
2023-03-26T23:03:00.494Z,101253.50
2023-03-26T23:05:27.785Z,101261.22
2023-03-26T23:07:54.404Z,101276.84
2023-03-26T23:10:22.000Z,101283.56
2023-03-26T23:12:49.602Z,101274.47
2023-03-26T23:15:16.303Z,101298.34
2023-03-26T23:17:43.121Z,101253.22
2023-03-26T23:20:15.238Z,101291.91
2023-03-26T23:22:43.060Z,101270.88
2023-03-26T23:25:11.600Z,101287.28
2023-03-26T23:27:40.166Z,101325.06
2023-03-26T23:30:07.473Z,101316.75
2023-03-26T23:32:37.901Z,101310.13
2023-03-26T23:35:05.341Z,101312.75
2023-03-26T23:37:34.905Z,101332.31
2023-03-26T23:40:02.048Z,101314.59
2023-03-26T23:42:29.768Z,101339.91
2023-03-26T23:44:57.400Z,101347.59
2023-03-26T23:47:24.479Z,101341.75
2023-03-26T23:49:51.325Z,101306.22
2023-03-26T23:52:18.445Z,101342.06
2023-03-26T23:54:45.655Z,101362.72
2023-03-26T23:57:12.543Z,101356.78
2023-03-26T23:59:41.442Z,101361.00
